sensor_id;sensor_type;location;lat;lon;timestamp;P1;durP1;ratioP1;P2;durP2;ratioP2
75798;SDS011;65035;44.726;37.764;2022-12-13T00:00:51;5.20;;;2.83;;
75798;SDS011;65035;44.726;37.764;2022-12-13T00:01:54;6.13;;;2.63;;
75798;SDS011;65035;44.726;37.764;2022-12-13T00:02:57;6.55;;;2.65;;
75798;SDS011;65035;44.726;37.764;2022-12-13T00:04:01;5.72;;;2.60;;
75798;SDS011;65035;44.726;37.764;2022-12-13T00:05:06;5.55;;;2.42;;
75798;SDS011;65035;44.726;37.764;2022-12-13T00:06:09;5.50;;;2.85;;
75798;SDS011;65035;44.726;37.764;2022-12-13T00:07:13;5.57;;;2.03;;
75798;SDS011;65035;44.726;37.764;2022-12-13T00:08:16;5.70;;;2.28;;
75798;SDS011;65035;44.726;37.764;2022-12-13T00:09:19;5.40;;;2.30;;
75798;SDS011;65035;44.726;37.764;2022-12-13T00:10:22;5.18;;;2.03;;
75798;SDS011;65035;44.726;37.764;2022-12-13T00:11:25;6.18;;;2.50;;
75798;SDS011;65035;44.726;37.764;2022-12-13T00:12:29;4.25;;;2.15;;
75798;SDS011;65035;44.726;37.764;2022-12-13T00:13:32;7.00;;;2.15;;
75798;SDS011;65035;44.726;37.764;2022-12-13T00:14:35;6.43;;;2.55;;
75798;SDS011;65035;44.726;37.764;2022-12-13T00:15:38;6.43;;;2.25;;
75798;SDS011;65035;44.726;37.764;2022-12-13T00:16:43;5.78;;;2.38;;
75798;SDS011;65035;44.726;37.764;2022-12-13T00:17:48;4.97;;;1.95;;
75798;SDS011;65035;44.726;37.764;2022-12-13T00:18:53;4.28;;;1.88;;
75798;SDS011;65035;44.726;37.764;2022-12-13T00:19:57;4.18;;;2.10;;
75798;SDS011;65035;44.726;37.764;2022-12-13T00:21:34;6.38;;;2.80;;
75798;SDS011;65035;44.726;37.764;2022-12-13T00:22:31;6.03;;;2.35;;
75798;SDS011;65035;44.726;37.764;2022-12-13T00:23:34;4.03;;;2.42;;
75798;SDS011;65035;44.726;37.764;2022-12-13T00:24:37;5.95;;;2.45;;
75798;SDS011;65035;44.726;37.764;2022-12-13T00:25:43;4.63;;;2.47;;
75798;SDS011;65035;44.726;37.764;2022-12-13T00:26:48;6.10;;;2.35;;
75798;SDS011;65035;44.726;37.764;2022-12-13T00:27:50;5.75;;;3.65;;
75798;SDS011;65035;44.726;37.764;2022-12-13T00:28:53;5.10;;;2.25;;
75798;SDS011;65035;44.726;37.764;2022-12-13T00:29:56;6.72;;;2.85;;
75798;SDS011;65035;44.726;37.764;2022-12-13T00:31:01;5.97;;;2.33;;
75798;SDS011;65035;44.726;37.764;2022-12-13T00:32:14;8.00;;;2.30;;
75798;SDS011;65035;44.726;37.764;2022-12-13T00:34:20;4.13;;;1.80;;
75798;SDS011;65035;44.726;37.764;2022-12-13T00:35:23;5.28;;;2.22;;
75798;SDS011;65035;44.726;37.764;2022-12-13T00:36:26;4.75;;;2.10;;
75798;SDS011;65035;44.726;37.764;2022-12-13T00:37:29;4.78;;;2.20;;
75798;SDS011;65035;44.726;37.764;2022-12-13T00:38:33;6.10;;;2.47;;
75798;SDS011;65035;44.726;37.764;2022-12-13T00:39:36;6.78;;;2.03;;
75798;SDS011;65035;44.726;37.764;2022-12-13T00:40:39;4.75;;;2.35;;
75798;SDS011;65035;44.726;37.764;2022-12-13T00:41:42;3.88;;;1.95;;
75798;SDS011;65035;44.726;37.764;2022-12-13T00:43:48;4.30;;;2.00;;
75798;SDS011;65035;44.726;37.764;2022-12-13T00:44:51;5.68;;;2.40;;
75798;SDS011;65035;44.726;37.764;2022-12-13T00:45:54;5.93;;;1.88;;
75798;SDS011;65035;44.726;37.764;2022-12-13T00:46:57;5.22;;;2.83;;
75798;SDS011;65035;44.726;37.764;2022-12-13T00:48:00;4.50;;;2.17;;
75798;SDS011;65035;44.726;37.764;2022-12-13T00:49:03;5.32;;;2.30;;
75798;SDS011;65035;44.726;37.764;2022-12-13T00:50:06;5.70;;;2.60;;
75798;SDS011;65035;44.726;37.764;2022-12-13T00:51:10;5.82;;;2.17;;
75798;SDS011;65035;44.726;37.764;2022-12-13T00:52:13;4.68;;;2.05;;
75798;SDS011;65035;44.726;37.764;2022-12-13T00:53:16;4.85;;;2.08;;
75798;SDS011;65035;44.726;37.764;2022-12-13T00:54:19;5.13;;;2.45;;
75798;SDS011;65035;44.726;37.764;2022-12-13T00:55:22;4.93;;;2.25;;
75798;SDS011;65035;44.726;37.764;2022-12-13T00:56:25;4.10;;;2.20;;
75798;SDS011;65035;44.726;37.764;2022-12-13T00:57:30;5.65;;;2.22;;
75798;SDS011;65035;44.726;37.764;2022-12-13T00:58:32;5.25;;;2.30;;
75798;SDS011;65035;44.726;37.764;2022-12-13T00:59:36;3.88;;;2.03;;
75798;SDS011;65035;44.726;37.764;2022-12-13T01:00:39;5.97;;;2.17;;
75798;SDS011;65035;44.726;37.764;2022-12-13T01:01:41;6.55;;;2.25;;
75798;SDS011;65035;44.726;37.764;2022-12-13T01:02:45;5.30;;;2.20;;
75798;SDS011;65035;44.726;37.764;2022-12-13T01:03:47;5.38;;;2.30;;
75798;SDS011;65035;44.726;37.764;2022-12-13T01:04:50;4.38;;;1.95;;
75798;SDS011;65035;44.726;37.764;2022-12-13T01:05:53;6.88;;;2.33;;
75798;SDS011;65035;44.726;37.764;2022-12-13T01:07:16;5.63;;;2.05;;
75798;SDS011;65035;44.726;37.764;2022-12-13T01:08:19;3.97;;;1.90;;
75798;SDS011;65035;44.726;37.764;2022-12-13T01:09:23;4.95;;;2.20;;
75798;SDS011;65035;44.726;37.764;2022-12-13T01:10:28;5.00;;;2.35;;
75798;SDS011;65035;44.726;37.764;2022-12-13T01:11:32;5.15;;;2.38;;
75798;SDS011;65035;44.726;37.764;2022-12-13T01:12:36;7.07;;;2.30;;
75798;SDS011;65035;44.726;37.764;2022-12-13T01:14:42;4.82;;;2.28;;
75798;SDS011;65035;44.726;37.764;2022-12-13T01:15:46;5.50;;;1.75;;
75798;SDS011;65035;44.726;37.764;2022-12-13T01:17:51;4.38;;;2.17;;
75798;SDS011;65035;44.726;37.764;2022-12-13T01:18:55;5.15;;;2.08;;
75798;SDS011;65035;44.726;37.764;2022-12-13T01:19:59;5.72;;;1.80;;
75798;SDS011;65035;44.726;37.764;2022-12-13T01:21:03;6.32;;;3.90;;
75798;SDS011;65035;44.726;37.764;2022-12-13T01:22:08;5.25;;;2.53;;
75798;SDS011;65035;44.726;37.764;2022-12-13T01:23:13;6.65;;;2.10;;
75798;SDS011;65035;44.726;37.764;2022-12-13T01:24:16;4.63;;;2.20;;
75798;SDS011;65035;44.726;37.764;2022-12-13T01:25:22;4.28;;;1.73;;
75798;SDS011;65035;44.726;37.764;2022-12-13T01:26:25;4.63;;;2.35;;
75798;SDS011;65035;44.726;37.764;2022-12-13T01:27:29;5.60;;;2.17;;
75798;SDS011;65035;44.726;37.764;2022-12-13T01:28:32;5.57;;;4.03;;
75798;SDS011;65035;44.726;37.764;2022-12-13T01:29:35;4.38;;;1.95;;
75798;SDS011;65035;44.726;37.764;2022-12-13T01:30:38;4.85;;;2.42;;
75798;SDS011;65035;44.726;37.764;2022-12-13T01:31:41;4.70;;;1.90;;
75798;SDS011;65035;44.726;37.764;2022-12-13T01:33:47;6.53;;;2.28;;
75798;SDS011;65035;44.726;37.764;2022-12-13T01:34:51;5.03;;;2.35;;
75798;SDS011;65035;44.726;37.764;2022-12-13T01:35:54;5.13;;;2.40;;
75798;SDS011;65035;44.726;37.764;2022-12-13T01:36:57;5.15;;;2.10;;
75798;SDS011;65035;44.726;37.764;2022-12-13T01:38:00;5.68;;;2.30;;
75798;SDS011;65035;44.726;37.764;2022-12-13T01:39:04;5.22;;;2.05;;
75798;SDS011;65035;44.726;37.764;2022-12-13T01:40:07;5.72;;;2.08;;
75798;SDS011;65035;44.726;37.764;2022-12-13T01:41:15;6.32;;;2.38;;
75798;SDS011;65035;44.726;37.764;2022-12-13T01:42:21;4.97;;;2.45;;
75798;SDS011;65035;44.726;37.764;2022-12-13T01:46:07;4.45;;;1.80;;
75798;SDS011;65035;44.726;37.764;2022-12-13T01:47:12;5.55;;;2.42;;
75798;SDS011;65035;44.726;37.764;2022-12-13T01:48:20;4.68;;;2.10;;
75798;SDS011;65035;44.726;37.764;2022-12-13T01:49:27;4.63;;;2.00;;
75798;SDS011;65035;44.726;37.764;2022-12-13T01:50:31;5.15;;;2.17;;
75798;SDS011;65035;44.726;37.764;2022-12-13T01:52:54;7.13;;;2.20;;
75798;SDS011;65035;44.726;37.764;2022-12-13T01:53:59;5.03;;;2.25;;
75798;SDS011;65035;44.726;37.764;2022-12-13T01:55:04;4.63;;;2.22;;
75798;SDS011;65035;44.726;37.764;2022-12-13T01:56:10;4.72;;;2.00;;
75798;SDS011;65035;44.726;37.764;2022-12-13T01:57:18;5.05;;;2.30;;
75798;SDS011;65035;44.726;37.764;2022-12-13T01:58:23;3.72;;;1.77;;
75798;SDS011;65035;44.726;37.764;2022-12-13T01:59:26;4.40;;;1.95;;
75798;SDS011;65035;44.726;37.764;2022-12-13T02:00:29;5.38;;;2.25;;
75798;SDS011;65035;44.726;37.764;2022-12-13T02:01:35;4.95;;;2.45;;
75798;SDS011;65035;44.726;37.764;2022-12-13T02:02:38;3.92;;;2.20;;
75798;SDS011;65035;44.726;37.764;2022-12-13T02:03:42;4.07;;;1.77;;
75798;SDS011;65035;44.726;37.764;2022-12-13T02:04:48;4.13;;;2.05;;
75798;SDS011;65035;44.726;37.764;2022-12-13T02:06:06;5.68;;;1.92;;
75798;SDS011;65035;44.726;37.764;2022-12-13T02:07:14;4.68;;;1.50;;
75798;SDS011;65035;44.726;37.764;2022-12-13T02:08:20;5.20;;;2.22;;
75798;SDS011;65035;44.726;37.764;2022-12-13T02:09:24;3.80;;;1.90;;
75798;SDS011;65035;44.726;37.764;2022-12-13T02:10:28;5.60;;;2.17;;
75798;SDS011;65035;44.726;37.764;2022-12-13T02:11:32;6.20;;;3.55;;
75798;SDS011;65035;44.726;37.764;2022-12-13T02:12:38;5.30;;;2.40;;
75798;SDS011;65035;44.726;37.764;2022-12-13T02:13:42;5.60;;;2.25;;
75798;SDS011;65035;44.726;37.764;2022-12-13T02:14:45;5.07;;;1.67;;
75798;SDS011;65035;44.726;37.764;2022-12-13T02:25:53;4.25;;;1.83;;
75798;SDS011;65035;44.726;37.764;2022-12-13T02:28:03;3.90;;;2.13;;
75798;SDS011;65035;44.726;37.764;2022-12-13T02:31:38;4.93;;;2.25;;
75798;SDS011;65035;44.726;37.764;2022-12-13T02:34:08;5.72;;;1.88;;
75798;SDS011;65035;44.726;37.764;2022-12-13T02:35:26;4.47;;;2.13;;
75798;SDS011;65035;44.726;37.764;2022-12-13T02:38:01;4.47;;;1.60;;
75798;SDS011;65035;44.726;37.764;2022-12-13T02:39:10;4.95;;;2.20;;
75798;SDS011;65035;44.726;37.764;2022-12-13T02:40:25;4.75;;;2.00;;
75798;SDS011;65035;44.726;37.764;2022-12-13T02:41:35;3.97;;;1.70;;
75798;SDS011;65035;44.726;37.764;2022-12-13T02:44:01;7.05;;;2.03;;
75798;SDS011;65035;44.726;37.764;2022-12-13T02:45:13;4.95;;;1.90;;
75798;SDS011;65035;44.726;37.764;2022-12-13T02:46:22;4.55;;;2.17;;
75798;SDS011;65035;44.726;37.764;2022-12-13T02:47:29;4.38;;;2.22;;
75798;SDS011;65035;44.726;37.764;2022-12-13T02:48:36;5.30;;;2.10;;
75798;SDS011;65035;44.726;37.764;2022-12-13T02:49:43;5.43;;;1.77;;
75798;SDS011;65035;44.726;37.764;2022-12-13T02:50:50;5.95;;;2.42;;
75798;SDS011;65035;44.726;37.764;2022-12-13T02:51:54;4.25;;;2.22;;
75798;SDS011;65035;44.726;37.764;2022-12-13T02:52:59;5.50;;;2.10;;
75798;SDS011;65035;44.726;37.764;2022-12-13T02:55:06;5.75;;;2.30;;
75798;SDS011;65035;44.726;37.764;2022-12-13T02:56:10;4.72;;;1.83;;
75798;SDS011;65035;44.726;37.764;2022-12-13T02:57:29;4.85;;;3.92;;
75798;SDS011;65035;44.726;37.764;2022-12-13T02:58:33;5.15;;;2.28;;
75798;SDS011;65035;44.726;37.764;2022-12-13T02:59:38;4.82;;;1.92;;
75798;SDS011;65035;44.726;37.764;2022-12-13T03:02:30;4.65;;;1.48;;
75798;SDS011;65035;44.726;37.764;2022-12-13T03:03:44;4.50;;;1.70;;
75798;SDS011;65035;44.726;37.764;2022-12-13T03:05:01;4.82;;;2.08;;
75798;SDS011;65035;44.726;37.764;2022-12-13T03:11:07;3.80;;;1.85;;
75798;SDS011;65035;44.726;37.764;2022-12-13T03:13:59;4.28;;;1.60;;
75798;SDS011;65035;44.726;37.764;2022-12-13T03:17:41;5.20;;;2.15;;
75798;SDS011;65035;44.726;37.764;2022-12-13T03:19:02;5.63;;;1.95;;
75798;SDS011;65035;44.726;37.764;2022-12-13T03:20:07;6.70;;;4.25;;
75798;SDS011;65035;44.726;37.764;2022-12-13T03:22:14;3.75;;;2.08;;
75798;SDS011;65035;44.726;37.764;2022-12-13T03:23:19;5.70;;;1.95;;
75798;SDS011;65035;44.726;37.764;2022-12-13T03:24:23;4.88;;;1.75;;
75798;SDS011;65035;44.726;37.764;2022-12-13T03:25:27;4.57;;;2.13;;
75798;SDS011;65035;44.726;37.764;2022-12-13T03:26:32;5.20;;;1.80;;
75798;SDS011;65035;44.726;37.764;2022-12-13T03:27:36;5.38;;;2.15;;
75798;SDS011;65035;44.726;37.764;2022-12-13T03:28:39;5.13;;;2.30;;
75798;SDS011;65035;44.726;37.764;2022-12-13T03:29:42;4.35;;;1.83;;
75798;SDS011;65035;44.726;37.764;2022-12-13T03:30:45;5.57;;;2.58;;
75798;SDS011;65035;44.726;37.764;2022-12-13T03:31:48;5.05;;;1.73;;
75798;SDS011;65035;44.726;37.764;2022-12-13T03:32:51;5.18;;;1.80;;
75798;SDS011;65035;44.726;37.764;2022-12-13T03:33:54;6.78;;;2.78;;
75798;SDS011;65035;44.726;37.764;2022-12-13T03:34:57;5.88;;;2.25;;
75798;SDS011;65035;44.726;37.764;2022-12-13T03:36:00;4.93;;;1.98;;
75798;SDS011;65035;44.726;37.764;2022-12-13T03:37:03;4.65;;;1.85;;
75798;SDS011;65035;44.726;37.764;2022-12-13T03:38:06;5.15;;;1.85;;
75798;SDS011;65035;44.726;37.764;2022-12-13T03:39:10;5.70;;;2.15;;
75798;SDS011;65035;44.726;37.764;2022-12-13T03:40:13;4.70;;;2.25;;
75798;SDS011;65035;44.726;37.764;2022-12-13T03:41:16;6.20;;;1.90;;
75798;SDS011;65035;44.726;37.764;2022-12-13T03:42:22;5.05;;;1.70;;
75798;SDS011;65035;44.726;37.764;2022-12-13T03:43:25;3.67;;;1.73;;
75798;SDS011;65035;44.726;37.764;2022-12-13T03:44:29;6.90;;;2.00;;
75798;SDS011;65035;44.726;37.764;2022-12-13T03:45:32;5.20;;;2.08;;
75798;SDS011;65035;44.726;37.764;2022-12-13T03:46:35;5.70;;;1.92;;
75798;SDS011;65035;44.726;37.764;2022-12-13T03:47:38;4.93;;;1.80;;
75798;SDS011;65035;44.726;37.764;2022-12-13T03:48:41;4.47;;;1.85;;
75798;SDS011;65035;44.726;37.764;2022-12-13T03:49:43;4.95;;;2.10;;
75798;SDS011;65035;44.726;37.764;2022-12-13T03:50:46;4.05;;;1.85;;
75798;SDS011;65035;44.726;37.764;2022-12-13T03:51:49;9.65;;;3.97;;
75798;SDS011;65035;44.726;37.764;2022-12-13T03:52:58;40.63;;;8.30;;
75798;SDS011;65035;44.726;37.764;2022-12-13T03:54:05;38.30;;;8.52;;
75798;SDS011;65035;44.726;37.764;2022-12-13T03:55:07;25.70;;;6.03;;
75798;SDS011;65035;44.726;37.764;2022-12-13T03:56:10;20.92;;;4.90;;
75798;SDS011;65035;44.726;37.764;2022-12-13T03:57:13;22.13;;;5.38;;
75798;SDS011;65035;44.726;37.764;2022-12-13T03:58:16;20.80;;;4.70;;
75798;SDS011;65035;44.726;37.764;2022-12-13T03:59:19;22.52;;;4.97;;
75798;SDS011;65035;44.726;37.764;2022-12-13T04:00:22;15.25;;;4.30;;
75798;SDS011;65035;44.726;37.764;2022-12-13T04:01:25;18.52;;;4.18;;
75798;SDS011;65035;44.726;37.764;2022-12-13T04:02:28;14.82;;;3.60;;
75798;SDS011;65035;44.726;37.764;2022-12-13T04:03:31;14.65;;;4.32;;
75798;SDS011;65035;44.726;37.764;2022-12-13T04:04:35;12.60;;;3.92;;
75798;SDS011;65035;44.726;37.764;2022-12-13T04:05:38;15.25;;;3.90;;
75798;SDS011;65035;44.726;37.764;2022-12-13T04:06:40;13.60;;;3.67;;
75798;SDS011;65035;44.726;37.764;2022-12-13T04:07:43;13.18;;;3.40;;
75798;SDS011;65035;44.726;37.764;2022-12-13T04:08:46;12.10;;;3.40;;
75798;SDS011;65035;44.726;37.764;2022-12-13T04:09:51;12.18;;;3.67;;
75798;SDS011;65035;44.726;37.764;2022-12-13T04:10:53;15.40;;;3.95;;
75798;SDS011;65035;44.726;37.764;2022-12-13T04:11:56;14.90;;;4.13;;
75798;SDS011;65035;44.726;37.764;2022-12-13T04:14:36;9.68;;;3.38;;
75798;SDS011;65035;44.726;37.764;2022-12-13T04:15:41;12.10;;;3.78;;
75798;SDS011;65035;44.726;37.764;2022-12-13T04:16:50;11.77;;;3.35;;
75798;SDS011;65035;44.726;37.764;2022-12-13T04:17:53;10.73;;;3.55;;
75798;SDS011;65035;44.726;37.764;2022-12-13T04:18:56;12.07;;;3.40;;
75798;SDS011;65035;44.726;37.764;2022-12-13T04:19:59;9.50;;;3.38;;
75798;SDS011;65035;44.726;37.764;2022-12-13T04:21:02;10.65;;;3.30;;
75798;SDS011;65035;44.726;37.764;2022-12-13T04:22:05;14.48;;;3.45;;
75798;SDS011;65035;44.726;37.764;2022-12-13T04:23:08;13.10;;;4.72;;
75798;SDS011;65035;44.726;37.764;2022-12-13T04:24:11;13.05;;;3.55;;
75798;SDS011;65035;44.726;37.764;2022-12-13T04:25:16;9.90;;;4.28;;
75798;SDS011;65035;44.726;37.764;2022-12-13T04:26:20;11.27;;;4.30;;
75798;SDS011;65035;44.726;37.764;2022-12-13T04:27:23;9.85;;;4.05;;
75798;SDS011;65035;44.726;37.764;2022-12-13T04:28:26;10.40;;;4.22;;
75798;SDS011;65035;44.726;37.764;2022-12-13T04:29:29;13.27;;;3.85;;
75798;SDS011;65035;44.726;37.764;2022-12-13T04:30:33;14.77;;;3.53;;
75798;SDS011;65035;44.726;37.764;2022-12-13T04:31:37;11.90;;;3.30;;
75798;SDS011;65035;44.726;37.764;2022-12-13T04:32:40;9.52;;;5.53;;
75798;SDS011;65035;44.726;37.764;2022-12-13T04:33:43;7.70;;;2.92;;
75798;SDS011;65035;44.726;37.764;2022-12-13T04:34:46;9.75;;;3.33;;
75798;SDS011;65035;44.726;37.764;2022-12-13T04:35:50;10.77;;;3.67;;
75798;SDS011;65035;44.726;37.764;2022-12-13T04:36:53;9.85;;;3.65;;
75798;SDS011;65035;44.726;37.764;2022-12-13T04:37:57;9.45;;;2.75;;
75798;SDS011;65035;44.726;37.764;2022-12-13T04:39:00;10.75;;;4.18;;
75798;SDS011;65035;44.726;37.764;2022-12-13T04:40:05;10.70;;;3.35;;
75798;SDS011;65035;44.726;37.764;2022-12-13T04:41:15;8.68;;;2.80;;
75798;SDS011;65035;44.726;37.764;2022-12-13T04:42:19;10.23;;;3.70;;
75798;SDS011;65035;44.726;37.764;2022-12-13T04:43:21;10.73;;;3.38;;
75798;SDS011;65035;44.726;37.764;2022-12-13T04:44:24;8.45;;;3.03;;
75798;SDS011;65035;44.726;37.764;2022-12-13T04:45:28;8.80;;;3.28;;
75798;SDS011;65035;44.726;37.764;2022-12-13T04:46:30;7.70;;;2.72;;
75798;SDS011;65035;44.726;37.764;2022-12-13T04:47:33;7.88;;;3.28;;
75798;SDS011;65035;44.726;37.764;2022-12-13T04:48:36;10.30;;;3.13;;
75798;SDS011;65035;44.726;37.764;2022-12-13T04:49:39;8.23;;;3.20;;
75798;SDS011;65035;44.726;37.764;2022-12-13T04:50:42;6.97;;;3.05;;
75798;SDS011;65035;44.726;37.764;2022-12-13T04:51:45;7.60;;;4.22;;
75798;SDS011;65035;44.726;37.764;2022-12-13T04:52:48;9.73;;;3.08;;
75798;SDS011;65035;44.726;37.764;2022-12-13T04:53:51;8.88;;;3.28;;
75798;SDS011;65035;44.726;37.764;2022-12-13T04:54:53;7.85;;;2.97;;
75798;SDS011;65035;44.726;37.764;2022-12-13T04:55:57;8.07;;;3.15;;
75798;SDS011;65035;44.726;37.764;2022-12-13T04:57:00;7.93;;;2.42;;
75798;SDS011;65035;44.726;37.764;2022-12-13T04:58:03;9.10;;;2.92;;
75798;SDS011;65035;44.726;37.764;2022-12-13T05:00:10;6.53;;;2.53;;
75798;SDS011;65035;44.726;37.764;2022-12-13T05:01:17;9.10;;;2.90;;
75798;SDS011;65035;44.726;37.764;2022-12-13T05:02:20;8.27;;;2.70;;
75798;SDS011;65035;44.726;37.764;2022-12-13T05:03:23;7.13;;;2.75;;
75798;SDS011;65035;44.726;37.764;2022-12-13T05:04:27;6.32;;;3.00;;
75798;SDS011;65035;44.726;37.764;2022-12-13T05:05:33;8.57;;;2.85;;
75798;SDS011;65035;44.726;37.764;2022-12-13T05:06:39;7.55;;;4.38;;
75798;SDS011;65035;44.726;37.764;2022-12-13T05:07:41;5.75;;;2.45;;
75798;SDS011;65035;44.726;37.764;2022-12-13T05:08:44;8.05;;;2.58;;
75798;SDS011;65035;44.726;37.764;2022-12-13T05:09:47;6.78;;;2.80;;
75798;SDS011;65035;44.726;37.764;2022-12-13T05:10:50;8.40;;;2.53;;
75798;SDS011;65035;44.726;37.764;2022-12-13T05:11:55;6.93;;;2.67;;
75798;SDS011;65035;44.726;37.764;2022-12-13T05:12:58;6.50;;;2.20;;
75798;SDS011;65035;44.726;37.764;2022-12-13T05:14:02;5.50;;;2.85;;
75798;SDS011;65035;44.726;37.764;2022-12-13T05:15:05;5.40;;;2.10;;
75798;SDS011;65035;44.726;37.764;2022-12-13T05:17:11;8.13;;;2.72;;
75798;SDS011;65035;44.726;37.764;2022-12-13T05:18:14;6.30;;;2.08;;
75798;SDS011;65035;44.726;37.764;2022-12-13T05:19:16;7.70;;;3.05;;
75798;SDS011;65035;44.726;37.764;2022-12-13T05:20:19;7.55;;;2.70;;
75798;SDS011;65035;44.726;37.764;2022-12-13T05:21:22;5.78;;;3.00;;
75798;SDS011;65035;44.726;37.764;2022-12-13T05:22:25;7.20;;;2.50;;
75798;SDS011;65035;44.726;37.764;2022-12-13T05:23:28;8.13;;;2.90;;
75798;SDS011;65035;44.726;37.764;2022-12-13T05:24:31;7.00;;;3.10;;
75798;SDS011;65035;44.726;37.764;2022-12-13T05:25:36;8.45;;;3.25;;
75798;SDS011;65035;44.726;37.764;2022-12-13T05:26:41;7.07;;;2.75;;
75798;SDS011;65035;44.726;37.764;2022-12-13T05:27:44;5.88;;;2.50;;
75798;SDS011;65035;44.726;37.764;2022-12-13T05:28:47;6.43;;;2.50;;
75798;SDS011;65035;44.726;37.764;2022-12-13T05:29:50;7.82;;;2.50;;
75798;SDS011;65035;44.726;37.764;2022-12-13T05:30:55;7.57;;;2.17;;
75798;SDS011;65035;44.726;37.764;2022-12-13T05:32:00;5.78;;;2.35;;
75798;SDS011;65035;44.726;37.764;2022-12-13T05:33:03;8.35;;;2.70;;
75798;SDS011;65035;44.726;37.764;2022-12-13T05:34:06;7.38;;;2.42;;
75798;SDS011;65035;44.726;37.764;2022-12-13T05:35:09;5.75;;;2.60;;
75798;SDS011;65035;44.726;37.764;2022-12-13T05:36:12;6.65;;;2.40;;
75798;SDS011;65035;44.726;37.764;2022-12-13T05:37:15;6.90;;;2.35;;
75798;SDS011;65035;44.726;37.764;2022-12-13T05:38:18;4.50;;;2.30;;
75798;SDS011;65035;44.726;37.764;2022-12-13T05:39:21;7.18;;;2.53;;
75798;SDS011;65035;44.726;37.764;2022-12-13T05:40:24;5.85;;;2.55;;
75798;SDS011;65035;44.726;37.764;2022-12-13T05:41:31;6.95;;;2.58;;
75798;SDS011;65035;44.726;37.764;2022-12-13T05:42:36;5.65;;;3.33;;
75798;SDS011;65035;44.726;37.764;2022-12-13T05:43:40;7.22;;;2.70;;
75798;SDS011;65035;44.726;37.764;2022-12-13T05:44:44;6.80;;;2.72;;
75798;SDS011;65035;44.726;37.764;2022-12-13T05:45:47;5.82;;;2.70;;
75798;SDS011;65035;44.726;37.764;2022-12-13T05:46:50;6.20;;;2.63;;
75798;SDS011;65035;44.726;37.764;2022-12-13T05:47:53;6.05;;;2.00;;
75798;SDS011;65035;44.726;37.764;2022-12-13T05:48:56;6.05;;;3.30;;
75798;SDS011;65035;44.726;37.764;2022-12-13T05:49:59;5.72;;;2.00;;
75798;SDS011;65035;44.726;37.764;2022-12-13T05:51:02;4.75;;;2.20;;
75798;SDS011;65035;44.726;37.764;2022-12-13T05:52:04;4.72;;;1.92;;
75798;SDS011;65035;44.726;37.764;2022-12-13T05:53:08;7.15;;;2.78;;
75798;SDS011;65035;44.726;37.764;2022-12-13T05:54:12;5.55;;;2.03;;
75798;SDS011;65035;44.726;37.764;2022-12-13T05:55:15;6.10;;;2.13;;
75798;SDS011;65035;44.726;37.764;2022-12-13T05:56:18;5.85;;;2.08;;
75798;SDS011;65035;44.726;37.764;2022-12-13T05:57:21;4.85;;;2.10;;
75798;SDS011;65035;44.726;37.764;2022-12-13T05:59:27;5.15;;;2.60;;
75798;SDS011;65035;44.726;37.764;2022-12-13T06:00:30;4.55;;;2.00;;
75798;SDS011;65035;44.726;37.764;2022-12-13T06:01:33;4.60;;;2.42;;
75798;SDS011;65035;44.726;37.764;2022-12-13T06:02:38;8.15;;;2.40;;
75798;SDS011;65035;44.726;37.764;2022-12-13T06:03:43;4.97;;;2.28;;
75798;SDS011;65035;44.726;37.764;2022-12-13T06:04:46;7.22;;;2.40;;
75798;SDS011;65035;44.726;37.764;2022-12-13T06:05:49;7.45;;;2.50;;
75798;SDS011;65035;44.726;37.764;2022-12-13T06:06:52;4.72;;;2.58;;
75798;SDS011;65035;44.726;37.764;2022-12-13T06:07:55;4.97;;;2.50;;
75798;SDS011;65035;44.726;37.764;2022-12-13T06:10:02;6.28;;;2.15;;
75798;SDS011;65035;44.726;37.764;2022-12-13T06:11:06;5.53;;;2.10;;
75798;SDS011;65035;44.726;37.764;2022-12-13T06:12:09;6.18;;;2.50;;
75798;SDS011;65035;44.726;37.764;2022-12-13T06:13:12;6.15;;;2.17;;
75798;SDS011;65035;44.726;37.764;2022-12-13T06:14:15;5.45;;;2.30;;
75798;SDS011;65035;44.726;37.764;2022-12-13T06:15:17;4.75;;;1.83;;
75798;SDS011;65035;44.726;37.764;2022-12-13T06:16:23;4.82;;;1.92;;
75798;SDS011;65035;44.726;37.764;2022-12-13T06:17:36;6.57;;;2.22;;
75798;SDS011;65035;44.726;37.764;2022-12-13T06:18:39;5.32;;;2.05;;
75798;SDS011;65035;44.726;37.764;2022-12-13T06:19:41;5.75;;;2.45;;
75798;SDS011;65035;44.726;37.764;2022-12-13T06:20:44;6.65;;;2.45;;
75798;SDS011;65035;44.726;37.764;2022-12-13T06:21:57;5.60;;;2.58;;
75798;SDS011;65035;44.726;37.764;2022-12-13T06:22:59;4.60;;;2.15;;
75798;SDS011;65035;44.726;37.764;2022-12-13T06:24:03;6.03;;;2.35;;
75798;SDS011;65035;44.726;37.764;2022-12-13T06:25:07;6.22;;;2.47;;
75798;SDS011;65035;44.726;37.764;2022-12-13T06:26:10;4.22;;;1.38;;
75798;SDS011;65035;44.726;37.764;2022-12-13T06:27:13;4.47;;;2.00;;
75798;SDS011;65035;44.726;37.764;2022-12-13T06:28:16;5.45;;;2.55;;
75798;SDS011;65035;44.726;37.764;2022-12-13T06:29:19;5.45;;;2.28;;
75798;SDS011;65035;44.726;37.764;2022-12-13T06:30:23;6.82;;;2.58;;
75798;SDS011;65035;44.726;37.764;2022-12-13T06:31:26;6.03;;;2.63;;
75798;SDS011;65035;44.726;37.764;2022-12-13T06:32:28;4.97;;;2.35;;
75798;SDS011;65035;44.726;37.764;2022-12-13T06:33:31;6.05;;;2.50;;
75798;SDS011;65035;44.726;37.764;2022-12-13T06:34:38;5.35;;;2.75;;
75798;SDS011;65035;44.726;37.764;2022-12-13T06:35:40;5.07;;;2.50;;
75798;SDS011;65035;44.726;37.764;2022-12-13T06:36:43;6.18;;;2.45;;
75798;SDS011;65035;44.726;37.764;2022-12-13T06:37:50;5.13;;;2.67;;
75798;SDS011;65035;44.726;37.764;2022-12-13T06:38:53;8.10;;;3.50;;
75798;SDS011;65035;44.726;37.764;2022-12-13T06:39:56;6.40;;;3.45;;
75798;SDS011;65035;44.726;37.764;2022-12-13T06:41:09;6.93;;;3.13;;
75798;SDS011;65035;44.726;37.764;2022-12-13T06:42:16;5.07;;;2.80;;
75798;SDS011;65035;44.726;37.764;2022-12-13T06:43:20;5.90;;;2.63;;
75798;SDS011;65035;44.726;37.764;2022-12-13T06:44:23;5.47;;;2.75;;
75798;SDS011;65035;44.726;37.764;2022-12-13T06:45:26;6.63;;;2.70;;
75798;SDS011;65035;44.726;37.764;2022-12-13T06:46:29;5.47;;;2.50;;
75798;SDS011;65035;44.726;37.764;2022-12-13T06:47:32;6.22;;;2.65;;
75798;SDS011;65035;44.726;37.764;2022-12-13T06:48:34;5.18;;;2.58;;
75798;SDS011;65035;44.726;37.764;2022-12-13T06:49:38;4.85;;;2.13;;
75798;SDS011;65035;44.726;37.764;2022-12-13T06:50:44;5.82;;;3.00;;
75798;SDS011;65035;44.726;37.764;2022-12-13T06:51:47;4.07;;;2.15;;
75798;SDS011;65035;44.726;37.764;2022-12-13T06:52:50;5.18;;;2.28;;
75798;SDS011;65035;44.726;37.764;2022-12-13T06:53:52;4.35;;;2.45;;
75798;SDS011;65035;44.726;37.764;2022-12-13T06:54:55;4.55;;;2.00;;
75798;SDS011;65035;44.726;37.764;2022-12-13T06:56:04;5.45;;;2.90;;
75798;SDS011;65035;44.726;37.764;2022-12-13T06:57:11;6.68;;;2.80;;
75798;SDS011;65035;44.726;37.764;2022-12-13T06:58:14;6.10;;;3.50;;
75798;SDS011;65035;44.726;37.764;2022-12-13T06:59:17;6.13;;;3.25;;
75798;SDS011;65035;44.726;37.764;2022-12-13T07:00:20;6.78;;;2.65;;
75798;SDS011;65035;44.726;37.764;2022-12-13T07:01:24;5.53;;;2.75;;
75798;SDS011;65035;44.726;37.764;2022-12-13T07:02:26;6.45;;;2.95;;
75798;SDS011;65035;44.726;37.764;2022-12-13T07:03:29;5.53;;;2.70;;
75798;SDS011;65035;44.726;37.764;2022-12-13T07:05:37;5.70;;;2.35;;
75798;SDS011;65035;44.726;37.764;2022-12-13T07:07:42;5.85;;;2.65;;
75798;SDS011;65035;44.726;37.764;2022-12-13T07:09:50;4.93;;;4.03;;
75798;SDS011;65035;44.726;37.764;2022-12-13T07:10:54;6.40;;;4.50;;